sensor_id;sensor_type;location;lat;lon;timestamp;P1;durP1;ratioP1;P2;durP2;ratioP2
75746;SDS011;70632;52.232;21.038;2023-06-26T00:02:21;23.10;;;10.18;;
75746;SDS011;70632;52.232;21.038;2023-06-26T00:04:47;18.05;;;10.27;;
75746;SDS011;70632;52.232;21.038;2023-06-26T00:07:13;19.48;;;11.13;;
75746;SDS011;70632;52.232;21.038;2023-06-26T00:09:38;21.00;;;11.00;;
75746;SDS011;70632;52.232;21.038;2023-06-26T00:12:04;20.50;;;10.23;;
75746;SDS011;70632;52.232;21.038;2023-06-26T00:14:30;22.65;;;12.00;;
75746;SDS011;70632;52.232;21.038;2023-06-26T00:16:56;21.08;;;10.45;;
75746;SDS011;70632;52.232;21.038;2023-06-26T00:19:22;21.73;;;10.38;;
75746;SDS011;70632;52.232;21.038;2023-06-26T00:21:47;19.70;;;10.85;;
75746;SDS011;70632;52.232;21.038;2023-06-26T00:24:14;21.50;;;10.98;;
75746;SDS011;70632;52.232;21.038;2023-06-26T00:26:40;20.73;;;10.80;;
75746;SDS011;70632;52.232;21.038;2023-06-26T00:29:06;19.55;;;11.10;;
75746;SDS011;70632;52.232;21.038;2023-06-26T00:31:31;21.20;;;11.95;;
75746;SDS011;70632;52.232;21.038;2023-06-26T00:33:57;23.13;;;11.80;;
75746;SDS011;70632;52.232;21.038;2023-06-26T00:36:23;19.73;;;11.65;;
75746;SDS011;70632;52.232;21.038;2023-06-26T00:38:52;23.02;;;11.77;;
75746;SDS011;70632;52.232;21.038;2023-06-26T00:41:18;19.45;;;10.95;;
75746;SDS011;70632;52.232;21.038;2023-06-26T00:43:44;21.17;;;10.77;;
75746;SDS011;70632;52.232;21.038;2023-06-26T00:46:10;19.40;;;11.35;;
75746;SDS011;70632;52.232;21.038;2023-06-26T00:48:38;19.77;;;11.35;;
75746;SDS011;70632;52.232;21.038;2023-06-26T00:51:04;20.98;;;11.40;;
75746;SDS011;70632;52.232;21.038;2023-06-26T00:53:31;20.52;;;10.23;;
75746;SDS011;70632;52.232;21.038;2023-06-26T00:55:57;19.75;;;10.75;;
75746;SDS011;70632;52.232;21.038;2023-06-26T00:58:24;19.10;;;11.55;;
75746;SDS011;70632;52.232;21.038;2023-06-26T01:00:51;20.70;;;11.35;;
75746;SDS011;70632;52.232;21.038;2023-06-26T01:03:18;25.05;;;12.60;;
75746;SDS011;70632;52.232;21.038;2023-06-26T01:05:44;20.35;;;11.18;;
75746;SDS011;70632;52.232;21.038;2023-06-26T01:08:11;21.20;;;11.60;;
75746;SDS011;70632;52.232;21.038;2023-06-26T01:10:38;19.52;;;11.75;;
75746;SDS011;70632;52.232;21.038;2023-06-26T01:13:05;23.08;;;11.38;;
75746;SDS011;70632;52.232;21.038;2023-06-26T01:15:30;20.92;;;11.73;;
75746;SDS011;70632;52.232;21.038;2023-06-26T01:17:57;20.05;;;12.35;;
75746;SDS011;70632;52.232;21.038;2023-06-26T01:20:38;19.83;;;11.82;;
75746;SDS011;70632;52.232;21.038;2023-06-26T01:23:09;19.98;;;11.50;;
75746;SDS011;70632;52.232;21.038;2023-06-26T01:28:36;20.55;;;11.80;;
75746;SDS011;70632;52.232;21.038;2023-06-26T01:31:05;20.90;;;11.75;;
75746;SDS011;70632;52.232;21.038;2023-06-26T01:33:32;18.02;;;12.35;;
75746;SDS011;70632;52.232;21.038;2023-06-26T01:35:58;19.60;;;11.88;;
75746;SDS011;70632;52.232;21.038;2023-06-26T01:38:24;22.63;;;11.55;;
75746;SDS011;70632;52.232;21.038;2023-06-26T01:40:51;22.20;;;12.35;;
75746;SDS011;70632;52.232;21.038;2023-06-26T01:43:24;20.50;;;12.38;;
75746;SDS011;70632;52.232;21.038;2023-06-26T01:45:53;27.08;;;13.13;;
75746;SDS011;70632;52.232;21.038;2023-06-26T01:48:23;19.00;;;11.88;;
75746;SDS011;70632;52.232;21.038;2023-06-26T01:50:52;21.98;;;12.63;;
75746;SDS011;70632;52.232;21.038;2023-06-26T01:53:19;19.73;;;11.95;;
75746;SDS011;70632;52.232;21.038;2023-06-26T01:55:55;20.27;;;12.63;;
75746;SDS011;70632;52.232;21.038;2023-06-26T01:58:28;21.23;;;12.65;;
75746;SDS011;70632;52.232;21.038;2023-06-26T02:00:54;19.63;;;11.90;;
75746;SDS011;70632;52.232;21.038;2023-06-26T02:03:20;18.05;;;11.15;;
75746;SDS011;70632;52.232;21.038;2023-06-26T02:05:49;22.75;;;11.30;;
75746;SDS011;70632;52.232;21.038;2023-06-26T02:08:16;17.80;;;11.68;;
75746;SDS011;70632;52.232;21.038;2023-06-26T02:10:42;21.33;;;12.45;;
75746;SDS011;70632;52.232;21.038;2023-06-26T02:13:08;23.42;;;14.52;;
75746;SDS011;70632;52.232;21.038;2023-06-26T02:15:33;27.65;;;14.40;;
75746;SDS011;70632;52.232;21.038;2023-06-26T02:17:59;20.23;;;11.98;;
75746;SDS011;70632;52.232;21.038;2023-06-26T02:20:25;24.45;;;13.18;;
75746;SDS011;70632;52.232;21.038;2023-06-26T02:22:50;22.15;;;12.75;;
75746;SDS011;70632;52.232;21.038;2023-06-26T02:25:17;21.90;;;13.25;;
75746;SDS011;70632;52.232;21.038;2023-06-26T02:27:43;24.83;;;13.88;;
75746;SDS011;70632;52.232;21.038;2023-06-26T02:30:09;21.95;;;11.98;;
75746;SDS011;70632;52.232;21.038;2023-06-26T02:32:35;29.38;;;13.88;;
75746;SDS011;70632;52.232;21.038;2023-06-26T02:35:01;21.55;;;11.68;;
75746;SDS011;70632;52.232;21.038;2023-06-26T02:37:27;17.55;;;11.18;;
75746;SDS011;70632;52.232;21.038;2023-06-26T02:39:53;23.48;;;13.02;;
75746;SDS011;70632;52.232;21.038;2023-06-26T02:42:18;23.33;;;11.98;;
75746;SDS011;70632;52.232;21.038;2023-06-26T02:44:44;19.33;;;12.02;;
75746;SDS011;70632;52.232;21.038;2023-06-26T02:47:10;19.35;;;12.50;;
75746;SDS011;70632;52.232;21.038;2023-06-26T02:49:35;21.77;;;12.20;;
75746;SDS011;70632;52.232;21.038;2023-06-26T02:52:01;20.33;;;10.77;;
75746;SDS011;70632;52.232;21.038;2023-06-26T02:54:27;20.10;;;12.63;;
75746;SDS011;70632;52.232;21.038;2023-06-26T02:56:53;20.42;;;12.50;;
75746;SDS011;70632;52.232;21.038;2023-06-26T02:59:18;23.48;;;13.32;;
75746;SDS011;70632;52.232;21.038;2023-06-26T03:01:44;23.98;;;13.77;;
75746;SDS011;70632;52.232;21.038;2023-06-26T03:04:10;23.10;;;12.90;;
75746;SDS011;70632;52.232;21.038;2023-06-26T03:06:36;25.33;;;13.82;;
75746;SDS011;70632;52.232;21.038;2023-06-26T03:09:01;23.70;;;12.57;;
75746;SDS011;70632;52.232;21.038;2023-06-26T03:11:28;21.10;;;13.10;;
75746;SDS011;70632;52.232;21.038;2023-06-26T03:13:53;23.48;;;12.75;;
75746;SDS011;70632;52.232;21.038;2023-06-26T03:16:20;25.85;;;13.80;;
75746;SDS011;70632;52.232;21.038;2023-06-26T03:18:45;23.58;;;12.50;;
75746;SDS011;70632;52.232;21.038;2023-06-26T03:21:11;20.75;;;13.25;;
75746;SDS011;70632;52.232;21.038;2023-06-26T03:23:37;25.23;;;12.27;;
75746;SDS011;70632;52.232;21.038;2023-06-26T03:26:03;28.05;;;15.55;;
75746;SDS011;70632;52.232;21.038;2023-06-26T03:28:28;24.15;;;13.68;;
75746;SDS011;70632;52.232;21.038;2023-06-26T03:30:56;24.23;;;14.02;;
75746;SDS011;70632;52.232;21.038;2023-06-26T03:33:22;40.90;;;14.02;;
75746;SDS011;70632;52.232;21.038;2023-06-26T03:35:48;25.45;;;13.75;;
75746;SDS011;70632;52.232;21.038;2023-06-26T03:38:13;24.20;;;13.05;;
75746;SDS011;70632;52.232;21.038;2023-06-26T03:40:39;27.98;;;14.20;;
75746;SDS011;70632;52.232;21.038;2023-06-26T03:43:05;31.67;;;14.02;;
75746;SDS011;70632;52.232;21.038;2023-06-26T03:45:31;24.02;;;14.57;;
75746;SDS011;70632;52.232;21.038;2023-06-26T03:47:56;25.08;;;14.85;;
75746;SDS011;70632;52.232;21.038;2023-06-26T03:50:22;24.60;;;13.63;;
75746;SDS011;70632;52.232;21.038;2023-06-26T03:52:48;26.63;;;14.48;;
75746;SDS011;70632;52.232;21.038;2023-06-26T03:55:15;30.67;;;16.27;;
75746;SDS011;70632;52.232;21.038;2023-06-26T03:57:42;26.80;;;13.82;;
75746;SDS011;70632;52.232;21.038;2023-06-26T04:00:09;23.90;;;14.70;;
75746;SDS011;70632;52.232;21.038;2023-06-26T04:02:36;22.83;;;13.48;;
75746;SDS011;70632;52.232;21.038;2023-06-26T04:05:02;25.17;;;13.98;;
75746;SDS011;70632;52.232;21.038;2023-06-26T04:07:31;24.15;;;13.93;;
75746;SDS011;70632;52.232;21.038;2023-06-26T04:09:58;27.13;;;14.48;;
75746;SDS011;70632;52.232;21.038;2023-06-26T04:12:26;27.50;;;15.23;;
75746;SDS011;70632;52.232;21.038;2023-06-26T04:14:52;24.02;;;13.82;;
75746;SDS011;70632;52.232;21.038;2023-06-26T04:17:18;31.58;;;13.68;;
75746;SDS011;70632;52.232;21.038;2023-06-26T04:19:44;26.02;;;14.18;;
75746;SDS011;70632;52.232;21.038;2023-06-26T04:22:10;24.92;;;14.98;;
75746;SDS011;70632;52.232;21.038;2023-06-26T04:24:35;29.20;;;14.60;;
75746;SDS011;70632;52.232;21.038;2023-06-26T04:27:01;23.25;;;13.45;;
75746;SDS011;70632;52.232;21.038;2023-06-26T04:29:30;22.00;;;13.32;;
75746;SDS011;70632;52.232;21.038;2023-06-26T04:31:59;27.58;;;14.35;;
75746;SDS011;70632;52.232;21.038;2023-06-26T04:34:27;23.60;;;14.60;;
75746;SDS011;70632;52.232;21.038;2023-06-26T04:36:53;23.52;;;13.93;;
75746;SDS011;70632;52.232;21.038;2023-06-26T04:39:20;25.25;;;13.48;;
75746;SDS011;70632;52.232;21.038;2023-06-26T04:41:45;27.05;;;14.13;;
75746;SDS011;70632;52.232;21.038;2023-06-26T04:44:11;24.40;;;14.63;;
75746;SDS011;70632;52.232;21.038;2023-06-26T04:46:37;34.10;;;13.82;;
75746;SDS011;70632;52.232;21.038;2023-06-26T04:49:09;25.00;;;14.93;;
75746;SDS011;70632;52.232;21.038;2023-06-26T04:51:35;26.67;;;12.88;;
75746;SDS011;70632;52.232;21.038;2023-06-26T04:54:10;25.30;;;14.98;;
75746;SDS011;70632;52.232;21.038;2023-06-26T04:56:36;24.52;;;15.20;;
75746;SDS011;70632;52.232;21.038;2023-06-26T04:59:02;27.90;;;15.15;;
75746;SDS011;70632;52.232;21.038;2023-06-26T05:01:29;26.33;;;12.98;;
75746;SDS011;70632;52.232;21.038;2023-06-26T05:04:04;31.88;;;16.05;;
75746;SDS011;70632;52.232;21.038;2023-06-26T05:06:29;27.83;;;14.35;;
75746;SDS011;70632;52.232;21.038;2023-06-26T05:08:56;30.17;;;16.10;;
75746;SDS011;70632;52.232;21.038;2023-06-26T05:11:21;27.85;;;16.65;;
75746;SDS011;70632;52.232;21.038;2023-06-26T05:13:49;24.55;;;13.63;;
75746;SDS011;70632;52.232;21.038;2023-06-26T05:16:14;25.67;;;12.55;;
75746;SDS011;70632;52.232;21.038;2023-06-26T05:18:40;22.10;;;12.25;;
75746;SDS011;70632;52.232;21.038;2023-06-26T05:21:06;23.77;;;12.15;;
75746;SDS011;70632;52.232;21.038;2023-06-26T05:23:32;19.73;;;11.60;;
75746;SDS011;70632;52.232;21.038;2023-06-26T05:26:02;25.13;;;12.82;;
75746;SDS011;70632;52.232;21.038;2023-06-26T05:28:29;24.05;;;11.98;;
75746;SDS011;70632;52.232;21.038;2023-06-26T05:30:59;21.42;;;11.43;;
75746;SDS011;70632;52.232;21.038;2023-06-26T05:33:46;23.08;;;12.35;;
75746;SDS011;70632;52.232;21.038;2023-06-26T05:36:16;20.02;;;11.80;;
75746;SDS011;70632;52.232;21.038;2023-06-26T05:38:45;23.58;;;11.57;;
75746;SDS011;70632;52.232;21.038;2023-06-26T05:41:10;20.77;;;10.85;;
75746;SDS011;70632;52.232;21.038;2023-06-26T05:43:37;22.02;;;11.35;;
75746;SDS011;70632;52.232;21.038;2023-06-26T05:46:03;21.98;;;12.30;;
75746;SDS011;70632;52.232;21.038;2023-06-26T05:48:28;25.52;;;11.80;;
75746;SDS011;70632;52.232;21.038;2023-06-26T05:50:54;28.30;;;12.18;;
75746;SDS011;70632;52.232;21.038;2023-06-26T05:53:20;20.90;;;12.38;;
75746;SDS011;70632;52.232;21.038;2023-06-26T05:55:46;23.83;;;10.65;;
75746;SDS011;70632;52.232;21.038;2023-06-26T05:58:15;23.73;;;12.20;;
75746;SDS011;70632;52.232;21.038;2023-06-26T06:00:43;23.58;;;11.52;;
75746;SDS011;70632;52.232;21.038;2023-06-26T06:03:09;21.92;;;11.93;;
75746;SDS011;70632;52.232;21.038;2023-06-26T06:05:39;21.27;;;12.93;;
75746;SDS011;70632;52.232;21.038;2023-06-26T06:08:05;19.25;;;11.25;;
75746;SDS011;70632;52.232;21.038;2023-06-26T06:10:30;19.98;;;11.13;;
75746;SDS011;70632;52.232;21.038;2023-06-26T06:12:56;21.40;;;11.38;;
75746;SDS011;70632;52.232;21.038;2023-06-26T06:15:22;23.23;;;11.23;;
75746;SDS011;70632;52.232;21.038;2023-06-26T06:17:48;21.23;;;11.55;;
75746;SDS011;70632;52.232;21.038;2023-06-26T06:20:14;22.77;;;10.25;;
75746;SDS011;70632;52.232;21.038;2023-06-26T06:22:40;20.45;;;10.30;;
75746;SDS011;70632;52.232;21.038;2023-06-26T06:25:05;22.60;;;11.60;;
75746;SDS011;70632;52.232;21.038;2023-06-26T06:27:31;25.10;;;11.95;;
75746;SDS011;70632;52.232;21.038;2023-06-26T06:29:57;21.58;;;10.35;;
75746;SDS011;70632;52.232;21.038;2023-06-26T06:32:23;19.85;;;9.20;;
75746;SDS011;70632;52.232;21.038;2023-06-26T06:34:48;15.40;;;8.95;;
75746;SDS011;70632;52.232;21.038;2023-06-26T06:37:14;19.50;;;8.20;;
75746;SDS011;70632;52.232;21.038;2023-06-26T06:39:40;13.45;;;8.13;;
75746;SDS011;70632;52.232;21.038;2023-06-26T06:42:06;13.23;;;6.38;;
75746;SDS011;70632;52.232;21.038;2023-06-26T06:44:31;19.30;;;6.82;;
75746;SDS011;70632;52.232;21.038;2023-06-26T06:46:57;14.60;;;6.75;;
75746;SDS011;70632;52.232;21.038;2023-06-26T06:49:23;13.40;;;7.13;;
75746;SDS011;70632;52.232;21.038;2023-06-26T06:51:49;13.05;;;6.00;;
75746;SDS011;70632;52.232;21.038;2023-06-26T06:54:15;9.57;;;5.80;;
75746;SDS011;70632;52.232;21.038;2023-06-26T06:56:41;12.65;;;6.72;;
75746;SDS011;70632;52.232;21.038;2023-06-26T06:59:07;15.07;;;6.50;;
75746;SDS011;70632;52.232;21.038;2023-06-26T07:01:33;11.82;;;6.60;;
75746;SDS011;70632;52.232;21.038;2023-06-26T07:03:59;12.55;;;6.30;;
75746;SDS011;70632;52.232;21.038;2023-06-26T07:06:25;13.00;;;6.25;;
75746;SDS011;70632;52.232;21.038;2023-06-26T07:08:51;10.27;;;7.25;;
75746;SDS011;70632;52.232;21.038;2023-06-26T07:11:17;10.70;;;6.78;;
75746;SDS011;70632;52.232;21.038;2023-06-26T07:13:42;9.70;;;5.40;;
75746;SDS011;70632;52.232;21.038;2023-06-26T07:16:08;13.77;;;7.05;;
75746;SDS011;70632;52.232;21.038;2023-06-26T07:18:37;9.88;;;6.05;;
75746;SDS011;70632;52.232;21.038;2023-06-26T07:21:04;11.48;;;6.03;;
75746;SDS011;70632;52.232;21.038;2023-06-26T07:23:29;12.55;;;6.10;;
75746;SDS011;70632;52.232;21.038;2023-06-26T07:25:55;12.73;;;6.93;;
75746;SDS011;70632;52.232;21.038;2023-06-26T07:28:21;9.93;;;5.55;;
75746;SDS011;70632;52.232;21.038;2023-06-26T07:30:47;10.75;;;6.25;;
75746;SDS011;70632;52.232;21.038;2023-06-26T07:33:12;10.07;;;5.90;;
75746;SDS011;70632;52.232;21.038;2023-06-26T07:35:39;10.77;;;6.53;;
75746;SDS011;70632;52.232;21.038;2023-06-26T07:38:05;11.30;;;5.93;;
75746;SDS011;70632;52.232;21.038;2023-06-26T07:40:30;10.80;;;6.28;;
75746;SDS011;70632;52.232;21.038;2023-06-26T07:42:56;12.10;;;5.50;;
75746;SDS011;70632;52.232;21.038;2023-06-26T07:45:23;12.85;;;5.75;;
75746;SDS011;70632;52.232;21.038;2023-06-26T07:47:49;10.43;;;5.47;;
75746;SDS011;70632;52.232;21.038;2023-06-26T07:50:15;10.43;;;6.35;;
75746;SDS011;70632;52.232;21.038;2023-06-26T07:52:46;11.20;;;6.07;;
75746;SDS011;70632;52.232;21.038;2023-06-26T07:55:12;12.55;;;5.70;;
75746;SDS011;70632;52.232;21.038;2023-06-26T07:57:39;10.13;;;5.70;;
75746;SDS011;70632;52.232;21.038;2023-06-26T08:00:05;12.07;;;5.68;;
75746;SDS011;70632;52.232;21.038;2023-06-26T08:02:32;8.77;;;5.57;;
75746;SDS011;70632;52.232;21.038;2023-06-26T08:04:58;11.98;;;6.03;;
75746;SDS011;70632;52.232;21.038;2023-06-26T08:07:23;12.27;;;5.80;;
75746;SDS011;70632;52.232;21.038;2023-06-26T08:09:49;8.68;;;5.53;;
75746;SDS011;70632;52.232;21.038;2023-06-26T08:12:14;10.95;;;5.47;;
75746;SDS011;70632;52.232;21.038;2023-06-26T08:14:40;10.05;;;6.00;;
75746;SDS011;70632;52.232;21.038;2023-06-26T08:17:06;10.70;;;5.60;;
75746;SDS011;70632;52.232;21.038;2023-06-26T08:19:32;9.38;;;5.28;;
75746;SDS011;70632;52.232;21.038;2023-06-26T08:21:58;12.63;;;6.13;;
75746;SDS011;70632;52.232;21.038;2023-06-26T08:24:24;12.07;;;5.68;;
75746;SDS011;70632;52.232;21.038;2023-06-26T08:26:49;10.00;;;5.10;;
75746;SDS011;70632;52.232;21.038;2023-06-26T08:29:15;12.27;;;6.00;;
75746;SDS011;70632;52.232;21.038;2023-06-26T08:31:41;8.80;;;5.32;;
75746;SDS011;70632;52.232;21.038;2023-06-26T08:34:08;9.63;;;5.57;;
75746;SDS011;70632;52.232;21.038;2023-06-26T08:36:33;10.30;;;5.85;;
75746;SDS011;70632;52.232;21.038;2023-06-26T08:38:59;8.48;;;5.53;;
75746;SDS011;70632;52.232;21.038;2023-06-26T08:41:25;7.85;;;5.07;;
75746;SDS011;70632;52.232;21.038;2023-06-26T08:43:51;9.57;;;5.47;;
75746;SDS011;70632;52.232;21.038;2023-06-26T08:46:18;9.82;;;5.90;;
75746;SDS011;70632;52.232;21.038;2023-06-26T08:48:46;11.95;;;6.00;;
75746;SDS011;70632;52.232;21.038;2023-06-26T08:51:15;11.68;;;6.18;;
75746;SDS011;70632;52.232;21.038;2023-06-26T08:58:40;12.68;;;6.00;;
75746;SDS011;70632;52.232;21.038;2023-06-26T09:01:06;10.77;;;5.93;;
75746;SDS011;70632;52.232;21.038;2023-06-26T09:03:32;10.45;;;6.00;;
75746;SDS011;70632;52.232;21.038;2023-06-26T09:05:58;11.93;;;6.22;;
75746;SDS011;70632;52.232;21.038;2023-06-26T09:08:24;9.25;;;5.72;;
75746;SDS011;70632;52.232;21.038;2023-06-26T09:10:49;9.07;;;5.03;;
75746;SDS011;70632;52.232;21.038;2023-06-26T09:13:16;7.60;;;5.47;;
75746;SDS011;70632;52.232;21.038;2023-06-26T09:15:44;7.57;;;5.88;;
75746;SDS011;70632;52.232;21.038;2023-06-26T09:18:11;7.43;;;5.63;;
75746;SDS011;70632;52.232;21.038;2023-06-26T09:20:37;9.73;;;5.72;;
75746;SDS011;70632;52.232;21.038;2023-06-26T09:23:03;8.93;;;5.93;;
75746;SDS011;70632;52.232;21.038;2023-06-26T09:25:29;7.80;;;5.47;;
75746;SDS011;70632;52.232;21.038;2023-06-26T09:27:56;10.23;;;5.32;;
75746;SDS011;70632;52.232;21.038;2023-06-26T09:30:22;10.23;;;5.35;;
75746;SDS011;70632;52.232;21.038;2023-06-26T09:32:48;6.82;;;5.35;;
75746;SDS011;70632;52.232;21.038;2023-06-26T09:35:19;11.05;;;5.43;;
75746;SDS011;70632;52.232;21.038;2023-06-26T09:37:45;7.82;;;5.30;;
75746;SDS011;70632;52.232;21.038;2023-06-26T09:40:11;7.32;;;5.35;;
75746;SDS011;70632;52.232;21.038;2023-06-26T09:42:39;7.90;;;5.43;;
75746;SDS011;70632;52.232;21.038;2023-06-26T09:45:04;8.80;;;5.85;;
75746;SDS011;70632;52.232;21.038;2023-06-26T09:47:31;10.77;;;5.90;;
75746;SDS011;70632;52.232;21.038;2023-06-26T09:49:59;7.07;;;5.68;;
75746;SDS011;70632;52.232;21.038;2023-06-26T09:52:28;9.18;;;5.03;;
75746;SDS011;70632;52.232;21.038;2023-06-26T09:55:16;8.27;;;5.10;;
75746;SDS011;70632;52.232;21.038;2023-06-26T09:57:41;9.00;;;5.22;;
75746;SDS011;70632;52.232;21.038;2023-06-26T10:00:09;10.15;;;5.43;;
75746;SDS011;70632;52.232;21.038;2023-06-26T10:05:03;9.82;;;5.47;;
75746;SDS011;70632;52.232;21.038;2023-06-26T10:07:28;9.35;;;5.43;;
75746;SDS011;70632;52.232;21.038;2023-06-26T10:09:55;7.68;;;4.80;;
75746;SDS011;70632;52.232;21.038;2023-06-26T10:12:26;18.27;;;10.38;;
75746;SDS011;70632;52.232;21.038;2023-06-26T10:14:55;11.73;;;6.30;;
75746;SDS011;70632;52.232;21.038;2023-06-26T10:17:25;11.57;;;5.28;;
75746;SDS011;70632;52.232;21.038;2023-06-26T10:19:55;10.77;;;5.57;;
75746;SDS011;70632;52.232;21.038;2023-06-26T10:22:27;9.80;;;5.50;;
75746;SDS011;70632;52.232;21.038;2023-06-26T10:24:55;11.25;;;5.68;;
75746;SDS011;70632;52.232;21.038;2023-06-26T10:29:54;12.95;;;5.15;;
75746;SDS011;70632;52.232;21.038;2023-06-26T10:32:23;9.55;;;4.22;;
75746;SDS011;70632;52.232;21.038;2023-06-26T10:34:52;7.03;;;4.50;;
75746;SDS011;70632;52.232;21.038;2023-06-26T10:37:18;7.22;;;4.30;;
75746;SDS011;70632;52.232;21.038;2023-06-26T10:39:47;8.02;;;4.60;;
75746;SDS011;70632;52.232;21.038;2023-06-26T10:42:19;7.80;;;4.63;;
75746;SDS011;70632;52.232;21.038;2023-06-26T10:45:08;10.90;;;4.95;;
75746;SDS011;70632;52.232;21.038;2023-06-26T10:47:35;9.38;;;5.07;;
75746;SDS011;70632;52.232;21.038;2023-06-26T10:55:58;7.90;;;5.10;;
75746;SDS011;70632;52.232;21.038;2023-06-26T11:03:40;8.75;;;5.05;;
75746;SDS011;70632;52.232;21.038;2023-06-26T11:06:08;9.27;;;4.97;;
75746;SDS011;70632;52.232;21.038;2023-06-26T11:08:50;9.55;;;4.45;;
75746;SDS011;70632;52.232;21.038;2023-06-26T11:11:21;6.32;;;4.38;;
75746;SDS011;70632;52.232;21.038;2023-06-26T11:13:47;9.85;;;4.70;;
75746;SDS011;70632;52.232;21.038;2023-06-26T11:16:14;8.38;;;4.63;;
75746;SDS011;70632;52.232;21.038;2023-06-26T11:18:41;9.82;;;5.15;;
75746;SDS011;70632;52.232;21.038;2023-06-26T11:21:08;8.27;;;5.22;;
75746;SDS011;70632;52.232;21.038;2023-06-26T11:23:35;9.25;;;5.38;;
75746;SDS011;70632;52.232;21.038;2023-06-26T11:29:03;9.73;;;5.32;;
75746;SDS011;70632;52.232;21.038;2023-06-26T11:31:29;12.95;;;5.22;;
75746;SDS011;70632;52.232;21.038;2023-06-26T11:33:57;8.45;;;5.07;;
75746;SDS011;70632;52.232;21.038;2023-06-26T11:36:27;9.30;;;5.35;;
75746;SDS011;70632;52.232;21.038;2023-06-26T11:38:56;7.20;;;4.80;;
75746;SDS011;70632;52.232;21.038;2023-06-26T11:41:24;7.68;;;5.68;;
75746;SDS011;70632;52.232;21.038;2023-06-26T11:43:51;8.65;;;5.38;;
75746;SDS011;70632;52.232;21.038;2023-06-26T11:46:18;9.88;;;5.30;;
75746;SDS011;70632;52.232;21.038;2023-06-26T11:48:45;6.82;;;4.72;;
75746;SDS011;70632;52.232;21.038;2023-06-26T11:51:15;8.02;;;4.65;;
75746;SDS011;70632;52.232;21.038;2023-06-26T11:53:41;7.57;;;4.63;;
75746;SDS011;70632;52.232;21.038;2023-06-26T11:56:12;7.80;;;5.35;;
75746;SDS011;70632;52.232;21.038;2023-06-26T12:01:32;6.50;;;4.40;;
75746;SDS011;70632;52.232;21.038;2023-06-26T12:04:00;7.18;;;4.20;;
75746;SDS011;70632;52.232;21.038;2023-06-26T12:06:29;6.95;;;4.22;;
75746;SDS011;70632;52.232;21.038;2023-06-26T12:08:56;7.88;;;4.80;;
75746;SDS011;70632;52.232;21.038;2023-06-26T12:11:23;8.10;;;4.53;;
75746;SDS011;70632;52.232;21.038;2023-06-26T12:13:50;5.32;;;4.32;;
75746;SDS011;70632;52.232;21.038;2023-06-26T12:16:16;7.18;;;4.50;;
75746;SDS011;70632;52.232;21.038;2023-06-26T12:18:42;8.32;;;4.40;;
75746;SDS011;70632;52.232;21.038;2023-06-26T12:21:09;10.13;;;4.70;;
75746;SDS011;70632;52.232;21.038;2023-06-26T12:23:58;7.43;;;4.72;;
75746;SDS011;70632;52.232;21.038;2023-06-26T12:26:25;5.72;;;4.00;;
75746;SDS011;70632;52.232;21.038;2023-06-26T12:28:52;9.50;;;5.10;;
75746;SDS011;70632;52.232;21.038;2023-06-26T12:31:20;7.38;;;4.68;;
75746;SDS011;70632;52.232;21.038;2023-06-26T12:33:47;9.88;;;4.82;;
75746;SDS011;70632;52.232;21.038;2023-06-26T12:36:13;7.03;;;4.80;;
75746;SDS011;70632;52.232;21.038;2023-06-26T12:38:42;7.15;;;4.32;;
75746;SDS011;70632;52.232;21.038;2023-06-26T12:41:14;10.68;;;5.53;;
75746;SDS011;70632;52.232;21.038;2023-06-26T12:43:41;8.45;;;4.25;;
75746;SDS011;70632;52.232;21.038;2023-06-26T12:46:07;7.68;;;4.70;;
75746;SDS011;70632;52.232;21.038;2023-06-26T12:48:36;13.57;;;8.70;;
75746;SDS011;70632;52.232;21.038;2023-06-26T12:51:15;8.73;;;4.90;;
75746;SDS011;70632;52.232;21.038;2023-06-26T12:53:41;10.77;;;4.68;;
75746;SDS011;70632;52.232;21.038;2023-06-26T12:56:08;7.30;;;4.97;;
75746;SDS011;70632;52.232;21.038;2023-06-26T12:58:34;9.93;;;5.18;;
75746;SDS011;70632;52.232;21.038;2023-06-26T13:01:04;8.25;;;4.07;;
75746;SDS011;70632;52.232;21.038;2023-06-26T13:03:32;6.38;;;5.35;;
75746;SDS011;70632;52.232;21.038;2023-06-26T13:05:58;8.57;;;5.30;;
75746;SDS011;70632;52.232;21.038;2023-06-26T13:08:24;8.05;;;5.45;;
75746;SDS011;70632;52.232;21.038;2023-06-26T13:10:50;11.07;;;5.80;;
75746;SDS011;70632;52.232;21.038;2023-06-26T13:13:16;7.13;;;4.60;;
75746;SDS011;70632;52.232;21.038;2023-06-26T13:15:42;6.07;;;4.45;;
75746;SDS011;70632;52.232;21.038;2023-06-26T13:18:07;7.10;;;4.78;;
75746;SDS011;70632;52.232;21.038;2023-06-26T13:20:33;6.85;;;4.80;;
75746;SDS011;70632;52.232;21.038;2023-06-26T13:22:59;7.40;;;5.00;;
75746;SDS011;70632;52.232;21.038;2023-06-26T13:25:25;7.75;;;5.60;;
75746;SDS011;70632;52.232;21.038;2023-06-26T13:27:50;8.20;;;5.05;;
75746;SDS011;70632;52.232;21.038;2023-06-26T13:30:16;6.22;;;4.78;;
75746;SDS011;70632;52.232;21.038;2023-06-26T13:32:42;7.88;;;4.75;;
75746;SDS011;70632;52.232;21.038;2023-06-26T13:35:09;7.78;;;4.82;;
75746;SDS011;70632;52.232;21.038;2023-06-26T13:37:35;7.45;;;4.43;;
75746;SDS011;70632;52.232;21.038;2023-06-26T13:40:02;6.97;;;4.40;;
75746;SDS011;70632;52.232;21.038;2023-06-26T13:42:28;7.40;;;5.28;;
75746;SDS011;70632;52.232;21.038;2023-06-26T13:44:54;8.77;;;4.68;;
75746;SDS011;70632;52.232;21.038;2023-06-26T13:47:20;11.88;;;5.10;;
75746;SDS011;70632;52.232;21.038;2023-06-26T13:49:46;6.00;;;4.32;;
75746;SDS011;70632;52.232;21.038;2023-06-26T13:52:12;9.52;;;5.07;;
75746;SDS011;70632;52.232;21.038;2023-06-26T13:54:38;7.68;;;4.35;;
75746;SDS011;70632;52.232;21.038;2023-06-26T13:57:05;8.55;;;4.90;;
75746;SDS011;70632;52.232;21.038;2023-06-26T13:59:32;6.88;;;4.80;;
75746;SDS011;70632;52.232;21.038;2023-06-26T14:01:59;7.53;;;4.78;;
75746;SDS011;70632;52.232;21.038;2023-06-26T14:04:25;8.05;;;5.53;;
75746;SDS011;70632;52.232;21.038;2023-06-26T14:06:51;8.50;;;4.55;;
75746;SDS011;70632;52.232;21.038;2023-06-26T14:09:17;8.30;;;4.68;;
75746;SDS011;70632;52.232;21.038;2023-06-26T14:11:43;8.55;;;5.18;;
75746;SDS011;70632;52.232;21.038;2023-06-26T14:14:09;9.55;;;4.93;;
75746;SDS011;70632;52.232;21.038;2023-06-26T14:16:35;9.35;;;5.35;;
75746;SDS011;70632;52.232;21.038;2023-06-26T14:19:01;8.93;;;4.68;;
75746;SDS011;70632;52.232;21.038;2023-06-26T14:21:27;7.60;;;4.35;;
75746;SDS011;70632;52.232;21.038;2023-06-26T14:23:54;6.47;;;4.82;;
75746;SDS011;70632;52.232;21.038;2023-06-26T14:26:20;8.10;;;5.13;;
75746;SDS011;70632;52.232;21.038;2023-06-26T14:28:46;8.95;;;4.88;;
75746;SDS011;70632;52.232;21.038;2023-06-26T14:31:12;10.52;;;5.20;;
75746;SDS011;70632;52.232;21.038;2023-06-26T14:33:38;8.80;;;4.60;;
75746;SDS011;70632;52.232;21.038;2023-06-26T14:36:04;8.45;;;4.80;;
75746;SDS011;70632;52.232;21.038;2023-06-26T14:38:30;6.50;;;4.57;;
75746;SDS011;70632;52.232;21.038;2023-06-26T14:40:56;8.23;;;5.20;;
75746;SDS011;70632;52.232;21.038;2023-06-26T14:43:22;9.18;;;6.10;;
75746;SDS011;70632;52.232;21.038;2023-06-26T14:45:47;16.00;;;9.40;;
75746;SDS011;70632;52.232;21.038;2023-06-26T14:48:13;11.68;;;6.45;;
75746;SDS011;70632;52.232;21.038;2023-06-26T14:50:39;9.02;;;5.72;;